Time;durP1;ratioP1;P1;durP2;ratioP2;P2;SDS_P1;SDS_P2;PMS_P1;PMS_P2;Temp;Humidity;BMP_temperature;BMP_pressure;BME280_temperature;BME280_humidity;BME280_pressure;Samples;Min_cycle;Max_cycle;Signal;HPM_P1;HPM_P2
2022/10/10 00:01:07;;;;;;;14.87;9.70;;;12.20;99.90;;;;;;5050708;28;20428;-77
2022/10/10 00:03:33;;;;;;;13.63;8.80;;;12.00;99.90;;;;;;5051125;28;20194;-77
2022/10/10 00:05:58;;;;;;;13.77;8.80;;;12.30;99.90;;;;;;5049587;28;20274;-77
2022/10/10 00:08:24;;;;;;;12.10;8.97;;;12.30;99.90;;;;;;5048699;28;20227;-76
2022/10/10 00:10:49;;;;;;;13.63;9.30;;;12.30;99.90;;;;;;5032418;28;20660;-76
2022/10/10 00:13:15;;;;;;;13.10;9.60;;;12.20;99.90;;;;;;5050411;28;20185;-76
2022/10/10 00:15:41;;;;;;;15.47;9.10;;;12.20;99.90;;;;;;5050010;28;20203;-76
2022/10/10 00:18:06;;;;;;;11.40;8.60;;;12.30;99.90;;;;;;5031861;28;20674;-77
2022/10/10 00:20:32;;;;;;;17.70;9.70;;;12.30;99.90;;;;;;5032032;28;20191;-76
2022/10/10 00:22:57;;;;;;;16.67;9.30;;;12.30;99.90;;;;;;5050090;28;20193;-76
2022/10/10 00:25:23;;;;;;;11.93;9.00;;;12.30;99.90;;;;;;5050018;28;20208;-76
2022/10/10 00:27:49;;;;;;;17.33;8.93;;;12.30;99.90;;;;;;5048487;28;20206;-75
2022/10/10 00:30:15;;;;;;;11.77;9.33;;;12.30;99.90;;;;;;5048736;28;20653;-77
2022/10/10 00:32:40;;;;;;;16.97;9.53;;;12.20;99.90;;;;;;5050514;28;20550;-78
2022/10/10 00:35:06;;;;;;;14.47;9.73;;;12.20;99.90;;;;;;5050807;28;20251;-77
2022/10/10 00:37:32;;;;;;;15.87;8.40;;;12.20;99.90;;;;;;5051215;28;20191;-78
2022/10/10 00:39:57;;;;;;;13.10;9.13;;;12.20;99.90;;;;;;5049921;28;20459;-77
2022/10/10 00:42:23;;;;;;;19.07;9.47;;;12.20;99.90;;;;;;5049563;28;20188;-77
2022/10/10 00:45:18;;;;;;;10.93;7.87;;;12.20;99.90;;;;;;5016345;28;20212;-76
2022/10/10 00:47:44;;;;;;;9.93;7.80;;;12.20;99.90;;;;;;5050088;28;20222;-75
2022/10/10 00:50:09;;;;;;;12.90;8.07;;;12.30;99.90;;;;;;5032264;28;20806;-76
2022/10/10 00:52:35;;;;;;;11.30;7.80;;;12.20;99.90;;;;;;5050097;28;20420;-77
2022/10/10 00:55:00;;;;;;;11.60;7.37;;;12.20;99.90;;;;;;5050501;28;20355;-77
2022/10/10 00:57:26;;;;;;;12.10;8.23;;;12.20;99.90;;;;;;5032492;28;20548;-78
2022/10/10 00:59:52;;;;;;;10.73;7.33;;;12.30;99.90;;;;;;5031613;28;20544;-78
2022/10/10 01:02:18;;;;;;;10.80;8.07;;;12.30;99.90;;;;;;5048464;28;20200;-78
2022/10/10 01:04:44;;;;;;;11.50;7.63;;;12.20;99.90;;;;;;5031887;28;21092;-76
2022/10/10 01:07:11;;;;;;;11.97;7.47;;;12.30;99.90;;;;;;5049288;28;20208;-77
2022/10/10 01:09:40;;;;;;;13.00;7.30;;;12.40;99.90;;;;;;5049428;28;20429;-76
2022/10/10 01:12:26;;;;;;;8.77;6.73;;;12.30;99.90;;;;;;5047906;28;20420;-76
2022/10/10 01:15:16;;;;;;;9.23;6.97;;;12.30;99.90;;;;;;5048945;28;20430;-77
2022/10/10 01:18:09;;;;;;;10.77;7.47;;;12.30;99.90;;;;;;5049003;28;20408;-76
2022/10/10 01:21:08;;;;;;;12.90;7.70;;;12.30;99.90;;;;;;5049098;28;21014;-77
2022/10/10 01:23:43;;;;;;;8.43;6.40;;;12.30;99.90;;;;;;5048892;28;20973;-76
2022/10/10 01:26:24;;;;;;;7.53;6.37;;;12.40;99.90;;;;;;5050907;28;20861;-78
2022/10/10 01:29:03;;;;;;;9.93;6.60;;;12.40;99.90;;;;;;5049543;28;20471;-78
2022/10/10 01:31:33;;;;;;;9.30;5.80;;;12.40;99.90;;;;;;5050856;28;20521;-76
2022/10/10 01:34:17;;;;;;;8.70;6.33;;;12.40;99.90;;;;;;5050790;28;20432;-77
2022/10/10 01:37:08;;;;;;;7.30;5.37;;;12.40;99.90;;;;;;5048998;28;20413;-75
2022/10/10 01:39:58;;;;;;;9.70;6.37;;;12.50;99.90;;;;;;5048849;28;20425;-76
2022/10/10 01:42:27;;;;;;;7.33;4.93;;;12.40;99.90;;;;;;5050245;28;20491;-77
2022/10/10 01:44:53;;;;;;;5.90;4.93;;;12.60;99.90;;;;;;5050326;28;20915;-77
2022/10/10 01:47:20;;;;;;;8.60;5.17;;;12.60;99.90;;;;;;5050381;28;20452;-78
2022/10/10 01:49:50;;;;;;;7.67;4.77;;;12.50;99.90;;;;;;5050240;28;20425;-80
2022/10/10 01:52:15;;;;;;;6.63;5.00;;;12.60;99.90;;;;;;5049438;28;20424;-77
2022/10/10 01:55:00;;;;;;;7.43;6.40;;;12.30;99.90;;;;;;5049315;28;20436;-78
2022/10/10 01:57:40;;;;;;;8.97;5.70;;;12.50;99.90;;;;;;5048700;28;20202;-77
2022/10/10 02:00:07;;;;;;;16.67;6.20;;;12.40;99.90;;;;;;5051757;28;21000;-78
2022/10/10 02:02:56;;;;;;;11.30;6.77;;;12.30;99.90;;;;;;5033023;28;20964;-78
2022/10/10 02:05:46;;;;;;;7.47;5.70;;;12.30;99.90;;;;;;5052170;28;20445;-80
2022/10/10 02:08:25;;;;;;;10.53;6.67;;;12.20;99.90;;;;;;5053447;28;20527;-79
2022/10/10 02:11:04;;;;;;;8.33;6.20;;;12.10;99.90;;;;;;5049334;28;20405;-76
2022/10/10 02:13:44;;;;;;;13.23;6.63;;;12.10;99.90;;;;;;5049495;28;20421;-77
2022/10/10 02:16:17;;;;;;;13.40;6.60;;;12.10;99.90;;;;;;5047922;28;20423;-76
2022/10/10 02:18:44;;;;;;;10.90;6.97;;;12.00;99.90;;;;;;5049639;28;20429;-77
2022/10/10 02:21:12;;;;;;;9.67;7.63;;;12.00;99.90;;;;;;5048207;28;20430;-77
2022/10/10 02:23:41;;;;;;;11.70;7.60;;;11.90;99.90;;;;;;5049855;28;20436;-77
2022/10/10 02:26:11;;;;;;;8.70;7.40;;;11.90;99.90;;;;;;5031865;28;20441;-77
2022/10/10 02:29:06;;;;;;;10.73;7.60;;;11.80;99.90;;;;;;5049778;28;20904;-77
2022/10/10 02:31:38;;;;;;;10.10;7.00;;;11.70;99.90;;;;;;5043024;28;21385;-77
2022/10/10 02:34:17;;;;;;;8.63;7.60;;;11.60;99.90;;;;;;5052971;28;20436;-76
2022/10/10 02:36:48;;;;;;;9.33;7.13;;;11.60;99.90;;;;;;5051387;28;20459;-76
2022/10/10 02:39:17;;;;;;;11.93;7.37;;;11.50;99.90;;;;;;5054250;28;20443;-78
2022/10/10 02:41:45;;;;;;;13.37;7.90;;;11.50;99.90;;;;;;5054936;28;20501;-78
2022/10/10 02:44:13;;;;;;;11.40;7.77;;;11.50;99.90;;;;;;5020919;28;21042;-78
2022/10/10 02:46:38;;;;;;;18.40;8.67;;;11.40;99.90;;;;;;5054574;28;20418;-77
2022/10/10 02:49:07;;;;;;;13.87;7.57;;;11.40;99.90;;;;;;5053657;28;21003;-76
2022/10/10 02:51:33;;;;;;;12.07;8.40;;;11.50;99.90;;;;;;5052485;28;20171;-78
2022/10/10 02:53:59;;;;;;;8.67;6.90;;;11.30;99.90;;;;;;5053144;28;21014;-80
2022/10/10 02:56:25;;;;;;;10.93;7.60;;;11.40;99.90;;;;;;5033954;28;20187;-78
2022/10/10 02:58:50;;;;;;;9.17;7.20;;;11.40;99.90;;;;;;5053289;28;20206;-77
2022/10/10 03:01:16;;;;;;;13.17;8.13;;;11.40;99.90;;;;;;5053840;28;20446;-78
2022/10/10 03:03:42;;;;;;;13.73;8.50;;;11.40;99.90;;;;;;5035684;28;20739;-78
2022/10/10 03:06:08;;;;;;;11.33;8.50;;;11.50;99.90;;;;;;5053841;28;20331;-77
2022/10/10 03:08:35;;;;;;;12.50;8.13;;;11.60;99.90;;;;;;5051473;28;20770;-78
2022/10/10 03:11:01;;;;;;;9.70;7.93;;;11.50;99.90;;;;;;5052300;28;20182;-77
2022/10/10 03:13:27;;;;;;;10.80;7.73;;;11.40;99.90;;;;;;5050268;28;20507;-79
2022/10/10 03:15:52;;;;;;;17.53;8.27;;;11.40;99.90;;;;;;5050903;28;20226;-77
2022/10/10 03:18:18;;;;;;;9.77;7.00;;;11.40;99.90;;;;;;5053515;28;20182;-77
2022/10/10 03:20:45;;;;;;;11.93;7.93;;;11.40;99.90;;;;;;5053515;28;20190;-77
2022/10/10 03:23:12;;;;;;;14.10;8.10;;;11.40;99.90;;;;;;5051243;28;20182;-78
2022/10/10 03:25:42;;;;;;;11.50;8.40;;;11.40;99.90;;;;;;5051360;28;20545;-78
2022/10/10 03:28:08;;;;;;;12.77;8.17;;;11.40;99.90;;;;;;5051793;28;20992;-78
2022/10/10 03:30:34;;;;;;;17.30;7.60;;;11.40;99.90;;;;;;5051517;28;20421;-78
2022/10/10 03:33:00;;;;;;;12.53;7.50;;;11.40;99.90;;;;;;5050707;28;20431;-77
2022/10/10 03:35:25;;;;;;;11.13;7.37;;;11.30;99.90;;;;;;5033849;28;20866;-77
2022/10/10 03:37:51;;;;;;;13.53;7.50;;;11.50;99.90;;;;;;5050792;28;20199;-77
2022/10/10 03:40:16;;;;;;;14.93;7.17;;;11.50;99.90;;;;;;5050790;28;20785;-76
2022/10/10 03:42:42;;;;;;;9.30;7.33;;;11.30;99.90;;;;;;5033727;28;20190;-77
2022/10/10 03:45:08;;;;;;;16.03;7.40;;;11.50;99.90;;;;;;5017213;28;20198;-77
2022/10/10 03:47:33;;;;;;;10.13;7.70;;;11.50;99.90;;;;;;5033540;28;20268;-77
2022/10/10 03:49:59;;;;;;;9.60;8.07;;;11.60;99.90;;;;;;5050295;28;20432;-77
2022/10/10 03:52:24;;;;;;;10.10;7.40;;;11.40;99.90;;;;;;5034188;28;20197;-78
2022/10/10 03:54:50;;;;;;;12.50;8.33;;;11.40;99.90;;;;;;5050012;28;20260;-79
2022/10/10 03:57:16;;;;;;;8.67;7.67;;;11.40;99.90;;;;;;5049904;28;20205;-79
2022/10/10 03:59:41;;;;;;;11.87;7.50;;;11.40;99.90;;;;;;5033324;28;20179;-79
2022/10/10 04:02:07;;;;;;;12.87;8.00;;;11.40;99.90;;;;;;5015851;28;20364;-79
2022/10/10 04:04:33;;;;;;;10.90;8.77;;;11.30;99.90;;;;;;5048583;28;20283;-79
2022/10/10 04:06:58;;;;;;;11.43;7.90;;;11.40;99.90;;;;;;5049557;28;20206;-79
2022/10/10 04:09:24;;;;;;;13.90;7.67;;;11.30;99.90;;;;;;5048028;28;20741;-77
2022/10/10 04:11:49;;;;;;;9.30;7.33;;;11.40;99.90;;;;;;5031183;28;20184;-78
2022/10/10 04:14:15;;;;;;;11.70;8.10;;;11.40;99.90;;;;;;5031227;28;20697;-79
2022/10/10 04:16:41;;;;;;;14.07;8.60;;;11.50;99.90;;;;;;5031399;28;20193;-77
2022/10/10 04:19:06;;;;;;;9.77;6.73;;;11.50;99.90;;;;;;5048015;28;20190;-78
2022/10/10 04:21:32;;;;;;;9.10;7.27;;;11.60;99.90;;;;;;5049344;28;20182;-80
2022/10/10 04:23:58;;;;;;;40.53;32.53;;;11.60;99.90;;;;;;5047407;28;20215;-78
2022/10/10 04:26:24;;;;;;;51.90;42.00;;;11.60;99.90;;;;;;5048869;28;20420;-78
2022/10/10 04:28:49;;;;;;;20.47;15.00;;;11.60;99.90;;;;;;5031059;28;20215;-77
2022/10/10 04:31:15;;;;;;;18.30;13.57;;;11.60;99.90;;;;;;5047661;28;20183;-78
2022/10/10 04:33:40;;;;;;;13.43;8.57;;;11.70;99.90;;;;;;5030679;28;20270;-79
2022/10/10 04:36:06;;;;;;;12.73;8.67;;;11.60;99.90;;;;;;5047141;28;20550;-79
2022/10/10 04:38:32;;;;;;;11.47;7.50;;;11.60;99.90;;;;;;5047360;28;20679;-79
2022/10/10 04:40:58;;;;;;;10.67;7.43;;;11.50;99.90;;;;;;5030219;28;20442;-79
2022/10/10 04:43:23;;;;;;;10.83;6.77;;;11.40;99.90;;;;;;5047513;28;20219;-79
2022/10/10 04:45:49;;;;;;;8.77;6.63;;;11.30;99.90;;;;;;5048868;28;20766;-80
2022/10/10 04:48:14;;;;;;;9.23;8.23;;;11.20;99.90;;;;;;5030656;28;20222;-78
2022/10/10 04:50:40;;;;;;;10.20;6.93;;;11.20;99.90;;;;;;5030905;28;20181;-79
2022/10/10 04:53:06;;;;;;;10.43;8.07;;;11.30;99.90;;;;;;5031020;28;20213;-81
2022/10/10 04:55:32;;;;;;;13.43;7.83;;;11.20;99.90;;;;;;5046632;28;20206;-78
2022/10/10 04:57:57;;;;;;;7.33;6.37;;;11.30;99.90;;;;;;5048546;28;20201;-79
2022/10/10 05:00:23;;;;;;;10.33;6.90;;;11.20;99.90;;;;;;5047247;28;20194;-79
2022/10/10 05:02:49;;;;;;;8.23;6.23;;;11.30;99.90;;;;;;5047707;28;20193;-78
2022/10/10 05:05:14;;;;;;;8.77;6.90;;;11.30;99.90;;;;;;5047295;28;20210;-79
2022/10/10 05:07:40;;;;;;;9.57;7.00;;;11.20;99.90;;;;;;5047469;28;20682;-79
2022/10/10 05:10:06;;;;;;;7.77;5.93;;;11.10;99.90;;;;;;5047411;28;20186;-80
2022/10/10 05:12:32;;;;;;;7.23;6.50;;;11.20;99.90;;;;;;5049194;28;20188;-80
2022/10/10 05:14:58;;;;;;;8.83;6.33;;;11.30;99.90;;;;;;5048920;28;21173;-80
2022/10/10 05:17:23;;;;;;;9.30;6.97;;;11.30;99.90;;;;;;5047846;28;20186;-79
2022/10/10 05:19:50;;;;;;;12.03;7.10;;;11.30;99.90;;;;;;5047773;28;20220;-78
2022/10/10 05:22:15;;;;;;;12.40;7.20;;;11.30;99.90;;;;;;5031093;28;20187;-79
2022/10/10 05:24:41;;;;;;;9.53;6.77;;;11.20;99.90;;;;;;5049568;28;20964;-79
2022/10/10 05:27:07;;;;;;;10.73;6.40;;;11.20;99.90;;;;;;5049816;28;20211;-79
2022/10/10 05:29:32;;;;;;;11.50;6.77;;;11.20;99.90;;;;;;5030892;28;20190;-78
2022/10/10 05:31:58;;;;;;;11.90;7.60;;;11.20;99.90;;;;;;5048298;28;20185;-78
2022/10/10 05:34:23;;;;;;;12.13;8.10;;;11.40;99.90;;;;;;5048378;28;20252;-78
2022/10/10 05:36:49;;;;;;;7.27;6.50;;;11.20;99.90;;;;;;5047912;28;20205;-81
2022/10/10 05:39:15;;;;;;;14.37;7.70;;;11.20;99.90;;;;;;5047598;28;20186;-78
2022/10/10 05:41:40;;;;;;;10.60;7.80;;;11.30;99.90;;;;;;5048240;28;20183;-79
2022/10/10 05:44:06;;;;;;;11.33;6.50;;;11.20;99.90;;;;;;5015536;28;20211;-80
2022/10/10 05:46:32;;;;;;;12.97;8.00;;;11.20;99.90;;;;;;5049088;28;20207;-79
2022/10/10 05:48:57;;;;;;;8.60;7.43;;;11.20;99.90;;;;;;5047165;28;20472;-78
2022/10/10 05:51:23;;;;;;;14.60;8.43;;;11.20;99.90;;;;;;5030489;28;20190;-79
2022/10/10 05:53:49;;;;;;;8.77;7.07;;;11.30;99.90;;;;;;5030515;28;20562;-78
2022/10/10 05:56:15;;;;;;;9.30;7.07;;;11.30;99.90;;;;;;5014265;28;20198;-79
2022/10/10 05:58:42;;;;;;;13.60;9.13;;;11.20;99.90;;;;;;5047108;28;20194;-78
2022/10/10 06:01:08;;;;;;;12.20;7.93;;;11.30;99.90;;;;;;5047268;28;20856;-80
2022/10/10 06:03:34;;;;;;;28.33;8.00;;;11.20;99.90;;;;;;5048141;28;20472;-78
2022/10/10 06:06:01;;;;;;;12.50;7.77;;;11.10;99.90;;;;;;5030831;28;20454;-78
2022/10/10 06:08:27;;;;;;;10.87;7.70;;;11.10;99.90;;;;;;5051408;28;20522;-77
2022/10/10 06:10:53;;;;;;;11.60;7.83;;;11.20;99.90;;;;;;5051571;28;20417;-77
2022/10/10 06:13:19;;;;;;;11.40;7.53;;;11.30;99.90;;;;;;5034941;28;20502;-80
2022/10/10 06:15:49;;;;;;;11.73;8.23;;;11.30;99.90;;;;;;5052733;28;20684;-77
2022/10/10 06:18:14;;;;;;;24.03;8.90;;;11.50;99.90;;;;;;5050753;28;20425;-77
2022/10/10 06:20:40;;;;;;;12.80;10.00;;;11.40;99.90;;;;;;5034129;28;20429;-77
2022/10/10 06:23:07;;;;;;;12.13;8.23;;;11.50;99.90;;;;;;5050832;28;20192;-78
2022/10/10 06:25:34;;;;;;;10.07;8.40;;;11.50;99.90;;;;;;5033747;28;20586;-76
2022/10/10 06:28:00;;;;;;;15.17;9.30;;;11.60;99.90;;;;;;5051741;28;20460;-78
2022/10/10 06:30:26;;;;;;;11.40;8.40;;;11.60;99.90;;;;;;5051586;28;20422;-79
2022/10/10 06:32:52;;;;;;;14.90;9.30;;;11.60;99.90;;;;;;5050542;28;20421;-79
2022/10/10 06:35:17;;;;;;;12.40;7.63;;;11.50;99.90;;;;;;5050156;28;20448;-76
2022/10/10 06:37:43;;;;;;;14.67;8.53;;;11.50;99.90;;;;;;5050054;28;20189;-78
2022/10/10 06:40:09;;;;;;;15.20;7.67;;;11.60;99.90;;;;;;5051562;28;20429;-78
2022/10/10 06:42:35;;;;;;;14.13;7.60;;;11.70;99.90;;;;;;5033193;28;20194;-80
2022/10/10 06:45:00;;;;;;;14.90;7.97;;;11.80;99.90;;;;;;5049432;28;20463;-78
2022/10/10 06:47:26;;;;;;;10.70;8.03;;;11.90;99.90;;;;;;5050958;28;20969;-78
2022/10/10 06:49:52;;;;;;;13.00;7.67;;;11.90;99.90;;;;;;5049870;28;20186;-77
2022/10/10 06:52:18;;;;;;;14.70;7.30;;;12.10;99.90;;;;;;5049622;28;20416;-79
2022/10/10 06:54:44;;;;;;;8.30;6.43;;;12.20;99.90;;;;;;5033403;28;20754;-79
2022/10/10 06:57:10;;;;;;;11.90;6.20;;;12.20;99.90;;;;;;5051552;28;20622;-78
2022/10/10 06:59:35;;;;;;;15.90;6.47;;;12.30;99.90;;;;;;5051334;28;20525;-79
2022/10/10 07:02:01;;;;;;;9.37;6.03;;;12.40;99.90;;;;;;5033275;28;20199;-79
2022/10/10 07:04:26;;;;;;;8.23;5.97;;;12.50;99.90;;;;;;5051004;28;20732;-78
2022/10/10 07:06:52;;;;;;;11.03;6.50;;;12.50;99.90;;;;;;5016357;28;20871;-78
2022/10/10 07:09:19;;;;;;;6.80;5.07;;;12.60;99.90;;;;;;5050309;28;20194;-79
2022/10/10 07:11:44;;;;;;;9.87;6.13;;;12.60;99.90;;;;;;5051082;28;20179;-78
2022/10/10 07:14:11;;;;;;;9.53;6.80;;;12.60;99.90;;;;;;5049530;28;21316;-79
2022/10/10 07:16:37;;;;;;;11.17;7.03;;;12.80;99.90;;;;;;5049419;28;20192;-78
2022/10/10 07:19:02;;;;;;;8.80;6.90;;;12.70;99.90;;;;;;5050677;28;20885;-80
2022/10/10 07:21:28;;;;;;;13.67;7.00;;;12.70;99.90;;;;;;5050940;28;20194;-79
2022/10/10 07:23:53;;;;;;;11.77;7.17;;;12.80;99.90;;;;;;5049760;28;20271;-78
2022/10/10 07:26:21;;;;;;;14.93;7.27;;;12.80;99.90;;;;;;5049923;28;20194;-78
2022/10/10 07:28:48;;;;;;;11.47;7.10;;;13.00;99.90;;;;;;5052862;28;20203;-80
2022/10/10 07:31:14;;;;;;;11.20;7.00;;;13.00;99.90;;;;;;5053979;28;20414;-79
2022/10/10 07:33:45;;;;;;;9.17;6.90;;;13.10;99.90;;;;;;5036563;28;20427;-79
2022/10/10 07:36:11;;;;;;;15.23;7.40;;;13.10;99.90;;;;;;5053519;28;20419;-78
2022/10/10 07:38:37;;;;;;;12.67;7.67;;;13.20;99.90;;;;;;5053884;28;20480;-78
2022/10/10 07:41:12;;;;;;;10.03;6.90;;;13.30;99.90;;;;;;5036263;28;20434;-79
2022/10/10 07:43:38;;;;;;;14.17;7.60;;;13.40;99.90;;;;;;5035500;28;20191;-80
2022/10/10 07:46:04;;;;;;;7.90;5.80;;;13.50;99.90;;;;;;5052795;28;20423;-79
2022/10/10 07:48:31;;;;;;;14.50;6.80;;;13.50;99.90;;;;;;5053350;28;20469;-78
2022/10/10 07:50:57;;;;;;;9.63;6.67;;;13.60;99.90;;;;;;5051169;28;20500;-78
2022/10/10 07:53:23;;;;;;;10.77;6.93;;;13.60;99.90;;;;;;5050543;28;21029;-78
2022/10/10 07:55:49;;;;;;;7.60;5.97;;;13.70;99.90;;;;;;5032084;28;20457;-80
2022/10/10 07:58:14;;;;;;;7.70;6.90;;;13.70;99.90;;;;;;5049094;28;20215;-78
2022/10/10 08:00:40;;;;;;;10.57;6.63;;;13.80;99.90;;;;;;5048782;28;20192;-78
2022/10/10 08:03:10;;;;;;;13.03;7.13;;;13.80;99.90;;;;;;5049350;28;20203;-79
2022/10/10 08:05:40;;;;;;;14.10;8.00;;;13.90;99.90;;;;;;5032137;28;20477;-78
2022/10/10 08:08:07;;;;;;;9.20;6.93;;;13.90;99.90;;;;;;5050674;28;20539;-79
2022/10/10 08:10:33;;;;;;;14.07;7.87;;;14.00;99.90;;;;;;5032541;28;20423;-77
2022/10/10 08:12:58;;;;;;;11.77;7.33;;;14.00;99.90;;;;;;5048096;28;20425;-80
2022/10/10 08:15:24;;;;;;;14.13;7.37;;;14.00;99.90;;;;;;5031947;28;20204;-78
2022/10/10 08:17:49;;;;;;;14.80;7.73;;;14.00;99.90;;;;;;5048923;28;20192;-78
2022/10/10 08:20:15;;;;;;;11.97;7.27;;;14.00;99.90;;;;;;5031652;28;20188;-77
2022/10/10 08:22:41;;;;;;;7.60;6.33;;;14.00;99.90;;;;;;5048476;28;20241;-77
2022/10/10 08:25:07;;;;;;;10.43;6.60;;;14.00;99.90;;;;;;5031945;28;20823;-78
2022/10/10 08:27:32;;;;;;;8.60;6.27;;;14.10;99.90;;;;;;5047665;28;20243;-77
2022/10/10 08:29:58;;;;;;;14.00;6.53;;;14.10;99.90;;;;;;5046414;28;21004;-79
2022/10/10 08:32:24;;;;;;;8.93;6.03;;;14.10;99.90;;;;;;5049207;28;20180;-77
2022/10/10 08:34:50;;;;;;;10.47;7.60;;;14.10;99.90;;;;;;5047218;28;20209;-77
2022/10/10 08:37:15;;;;;;;10.57;8.53;;;14.20;99.90;;;;;;5047530;28;20479;-77
2022/10/10 08:39:41;;;;;;;12.10;9.27;;;14.20;99.90;;;;;;5048908;28;20195;-78
2022/10/10 08:42:26;;;;;;;37.93;9.87;;;14.20;99.90;;;;;;5030897;28;20195;-77
2022/10/10 08:44:57;;;;;;;14.10;8.97;;;14.30;99.90;;;;;;5047208;28;20780;-77
2022/10/10 08:47:38;;;;;;;13.33;8.80;;;14.30;99.90;;;;;;5047252;28;20564;-77
2022/10/10 08:50:30;;;;;;;15.60;9.77;;;14.30;99.90;;;;;;5046892;28;20421;-78
2022/10/10 08:53:13;;;;;;;14.93;8.80;;;14.40;99.90;;;;;;5046960;28;20428;-77
2022/10/10 08:55:42;;;;;;;17.83;10.00;;;14.40;99.90;;;;;;5048428;28;20430;-78
2022/10/10 08:58:17;;;;;;;10.67;7.97;;;14.50;99.90;;;;;;5047125;28;20456;-77
2022/10/10 09:00:47;;;;;;;13.43;8.27;;;14.50;99.90;;;;;;5048313;28;20401;-77
2022/10/10 09:03:45;;;;;;;9.30;5.87;;;14.50;99.90;;;;;;5048510;28;20491;-77
2022/10/10 09:06:42;;;;;;;14.20;8.30;;;14.60;99.90;;;;;;5045579;28;20938;-78
2022/10/10 09:09:34;;;;;;;9.47;8.47;;;14.60;99.90;;;;;;5050245;28;20552;-78
2022/10/10 09:12:12;;;;;;;15.87;8.73;;;14.70;99.90;;;;;;5049058;28;20445;-78
2022/10/10 09:15:09;;;;;;;10.60;8.50;;;14.80;99.90;;;;;;5049254;28;21291;-78
2022/10/10 09:17:35;;;;;;;18.10;8.10;;;14.90;99.90;;;;;;5049484;28;20463;-78
2022/10/10 09:20:29;;;;;;;12.60;8.17;;;15.00;99.90;;;;;;5048813;28;20419;-78
2022/10/10 09:23:18;;;;;;;13.27;7.93;;;15.10;99.90;;;;;;5048877;28;20270;-78
2022/10/10 09:25:53;;;;;;;9.80;7.33;;;15.20;99.90;;;;;;5037711;28;20452;-79
2022/10/10 09:28:30;;;;;;;9.53;6.37;;;15.30;99.90;;;;;;5048735;28;20818;-77
2022/10/10 09:30:59;;;;;;;9.90;6.50;;;15.40;99.90;;;;;;5048141;28;20519;-77
2022/10/10 09:33:28;;;;;;;11.60;9.13;;;15.50;99.90;;;;;;5048291;28;20418;-77
2022/10/10 09:35:56;;;;;;;15.37;9.27;;;15.60;99.90;;;;;;5047653;28;20444;-77
2022/10/10 09:38:25;;;;;;;13.53;9.17;;;15.70;99.90;;;;;;5029632;28;20470;-78
2022/10/10 09:41:20;;;;;;;14.73;9.97;;;15.70;99.90;;;;;;5047714;28;20431;-79
2022/10/10 09:43:47;;;;;;;13.37;10.50;;;15.80;99.90;;;;;;5045581;28;20442;-79
2022/10/10 09:46:13;;;;;;;16.37;11.20;;;15.80;99.90;;;;;;5046514;28;20424;-79
2022/10/10 09:48:41;;;;;;;21.47;13.50;;;15.80;99.90;;;;;;5046350;28;20468;-79
2022/10/10 09:51:15;;;;;;;18.33;12.63;;;15.80;99.90;;;;;;5047990;28;20420;-79
2022/10/10 09:53:42;;;;;;;20.03;11.43;;;15.80;99.90;;;;;;5046268;28;20473;-79
2022/10/10 09:56:17;;;;;;;19.53;10.60;;;15.80;99.90;;;;;;5048306;28;20512;-79
2022/10/10 09:58:46;;;;;;;21.20;12.53;;;15.70;99.90;;;;;;5046281;28;20832;-79
2022/10/10 10:01:25;;;;;;;21.70;13.10;;;15.70;99.90;;;;;;5047857;28;20427;-79
2022/10/10 10:04:30;;;;;;;17.67;12.93;;;15.60;99.90;;;;;;5046456;28;21020;-79
2022/10/10 10:07:14;;;;;;;26.13;17.43;;;15.50;99.90;;;;;;5025451;28;20433;-78
2022/10/10 10:09:40;;;;;;;15.27;11.17;;;15.40;99.90;;;;;;5044141;28;20424;-79
2022/10/10 10:12:06;;;;;;;19.07;12.17;;;15.40;99.90;;;;;;5030237;28;20478;-81
2022/10/10 10:14:36;;;;;;;17.93;12.30;;;15.30;99.90;;;;;;5046299;28;20261;-79
2022/10/10 10:17:14;;;;;;;20.13;12.20;;;15.30;99.90;;;;;;5048834;28;20168;-78
2022/10/10 10:19:43;;;;;;;17.60;12.20;;;15.40;99.90;;;;;;5048524;28;20900;-78
2022/10/10 10:22:36;;;;;;;19.90;13.10;;;15.40;99.90;;;;;;5046494;28;20459;-78
2022/10/10 10:25:32;;;;;;;15.27;12.23;;;15.40;99.90;;;;;;5046467;28;20439;-77
2022/10/10 10:28:20;;;;;;;14.33;11.37;;;15.50;99.90;;;;;;5046451;28;20479;-78
2022/10/10 10:30:47;;;;;;;19.60;11.23;;;15.60;99.90;;;;;;5048826;28;20799;-78
2022/10/10 10:33:41;;;;;;;17.90;11.10;;;15.70;99.90;;;;;;5048251;28;20510;-78
2022/10/10 10:36:27;;;;;;;12.67;10.47;;;15.80;99.90;;;;;;5047952;28;21033;-77
2022/10/10 10:39:11;;;;;;;22.10;11.80;;;16.00;99.90;;;;;;5048023;28;20391;-78
2022/10/10 10:42:17;;;;;;;20.47;10.97;;;16.00;99.90;;;;;;5048325;28;20794;-77
2022/10/10 10:45:08;;;;;;;16.30;9.87;;;16.10;99.90;;;;;;5036534;28;20482;-77
2022/10/10 10:47:55;;;;;;;17.83;10.80;;;16.00;99.90;;;;;;5047562;28;20482;-78
2022/10/10 10:50:35;;;;;;;15.43;9.50;;;16.00;99.90;;;;;;5047470;28;20422;-78
2022/10/10 10:53:29;;;;;;;15.47;8.90;;;16.00;99.90;;;;;;5046882;28;20985;-78
2022/10/10 10:56:11;;;;;;;13.13;8.60;;;16.10;99.90;;;;;;5049411;28;20434;-76
2022/10/10 10:59:18;;;;;;;13.80;7.60;;;16.10;99.90;;;;;;5051274;28;20865;-79
2022/10/10 11:01:47;;;;;;;6.47;4.90;;;16.30;99.90;;;;;;5050727;28;20427;-78
2022/10/10 11:04:39;;;;;;;9.80;4.40;;;16.60;99.90;;;;;;5049694;28;20824;-78
2022/10/10 11:07:16;;;;;;;11.83;3.83;;;17.00;99.90;;;;;;5050827;28;20401;-77
2022/10/10 11:09:56;;;;;;;7.03;2.83;;;17.30;99.90;;;;;;5049180;28;20408;-77
2022/10/10 11:12:43;;;;;;;9.30;2.63;;;17.50;99.90;;;;;;5049306;28;21379;-77
2022/10/10 11:15:24;;;;;;;7.30;2.37;;;18.20;99.90;;;;;;5050643;28;20439;-77
2022/10/10 11:18:05;;;;;;;6.10;2.27;;;18.60;99.90;;;;;;5050874;28;20427;-78
2022/10/10 11:20:42;;;;;;;6.77;2.00;;;18.90;99.90;;;;;;5051729;28;20952;-77
2022/10/10 11:23:20;;;;;;;8.80;2.33;;;18.90;99.90;;;;;;5050186;28;20460;-77
2022/10/10 11:26:01;;;;;;;6.33;1.90;;;19.10;99.90;;;;;;5051330;28;20426;-79
2022/10/10 11:28:32;;;;;;;4.43;1.97;;;20.10;99.90;;;;;;5051279;28;20462;-78
2022/10/10 11:31:13;;;;;;;7.77;2.57;;;20.40;99.90;;;;;;5049875;28;21184;-77
2022/10/10 11:33:47;;;;;;;7.33;2.43;;;20.10;99.90;;;;;;5051279;28;20471;-79
2022/10/10 11:36:21;;;;;;;5.37;2.30;;;20.50;99.90;;;;;;5049736;28;20935;-79
2022/10/10 11:38:49;;;;;;;5.63;2.40;;;20.50;99.90;;;;;;5049833;28;20503;-79
2022/10/10 11:41:25;;;;;;;5.53;2.90;;;21.00;99.90;;;;;;5051335;28;20990;-79
2022/10/10 11:44:20;;;;;;;6.23;2.30;;;21.20;99.90;;;;;;5050725;28;20406;-78
2022/10/10 11:47:12;;;;;;;7.37;2.43;;;21.30;99.90;;;;;;5048614;28;20433;-79
2022/10/10 11:50:01;;;;;;;8.63;2.50;;;21.40;99.90;;;;;;5050670;28;20422;-79
2022/10/10 11:52:44;;;;;;;15.53;2.50;;;21.40;99.90;;;;;;5050119;28;20401;-79
2022/10/10 11:55:25;;;;;;;8.13;2.73;;;21.70;99.90;;;;;;5048761;28;20486;-81
2022/10/10 11:58:19;;;;;;;8.20;2.40;;;21.40;99.90;;;;;;5050234;28;20436;-79
2022/10/10 12:00:50;;;;;;;7.60;2.53;;;21.80;99.90;;;;;;5050157;28;20482;-78
2022/10/10 12:03:16;;;;;;;12.97;3.20;;;22.00;99.90;;;;;;5050020;28;20430;-77
2022/10/10 12:05:50;;;;;;;15.30;2.80;;;22.60;99.90;;;;;;5047337;28;20468;-79
2022/10/10 12:08:24;;;;;;;12.70;3.67;;;22.90;99.90;;;;;;5049767;28;20279;-78
2022/10/10 12:11:12;;;;;;;7.57;2.57;;;23.00;99.90;;;;;;5050144;28;20399;-78
2022/10/10 12:13:47;;;;;;;11.10;2.63;;;22.80;99.90;;;;;;5050187;28;20479;-78
2022/10/10 12:16:20;;;;;;;11.10;3.03;;;23.00;99.90;;;;;;5050248;28;20406;-79
2022/10/10 12:18:53;;;;;;;7.97;2.60;;;23.00;99.90;;;;;;5050052;28;20411;-78
2022/10/10 12:21:23;;;;;;;20.30;3.50;;;23.00;99.90;;;;;;5048394;28;20529;-78
2022/10/10 12:24:12;;;;;;;13.23;2.97;;;23.00;99.90;;;;;;5050117;28;20411;-78
2022/10/10 12:26:55;;;;;;;11.10;2.90;;;22.80;99.90;;;;;;5031650;28;20433;-78
2022/10/10 12:30:06;;;;;;;10.63;2.70;;;22.90;99.90;;;;;;5049650;28;20414;-79
2022/10/10 12:32:36;;;;;;;7.13;2.50;;;23.00;99.90;;;;;;5047167;28;20414;-77
2022/10/10 12:35:02;;;;;;;10.50;3.20;;;23.10;99.90;;;;;;5047591;28;20959;-80
2022/10/10 12:37:31;;;;;;;11.57;3.50;;;23.20;99.90;;;;;;5047710;28;20428;-79
2022/10/10 12:40:06;;;;;;;16.23;2.97;;;23.00;99.90;;;;;;5048900;28;20188;-79
2022/10/10 12:42:36;;;;;;;16.20;3.07;;;23.10;99.90;;;;;;5048850;28;20410;-79
2022/10/10 12:45:02;;;;;;;10.80;2.97;;;23.20;99.60;;;;;;5049092;28;20432;-78
2022/10/10 12:47:34;;;;;;;23.93;3.17;;;23.20;97.60;;;;;;5049244;28;20492;-80
2022/10/10 12:50:17;;;;;;;9.83;2.27;;;22.90;95.80;;;;;;5048934;28;20156;-78
2022/10/10 12:52:48;;;;;;;17.20;3.83;;;23.20;98.60;;;;;;5048799;28;20425;-77
2022/10/10 12:55:26;;;;;;;20.37;3.40;;;23.40;97.80;;;;;;5048447;28;20471;-78
2022/10/10 12:57:59;;;;;;;14.33;2.43;;;23.50;97.80;;;;;;5030241;28;20450;-78
2022/10/10 13:00:42;;;;;;;14.43;3.30;;;23.40;95.20;;;;;;5048969;28;20435;-76